Time;durP1;ratioP1;P1;durP2;ratioP2;P2;SDS_P1;SDS_P2;PMS_P1;PMS_P2;Temp;Humidity;BMP_temperature;BMP_pressure;BME280_temperature;BME280_humidity;BME280_pressure;Samples;Min_cycle;Max_cycle;Signal;HPM_P1;HPM_P2
2021/07/08 00:00:53;;;;;;;4.18;2.35;;;;;;;22.34;61.75;97310.75;5051838;28;20025;-59
2021/07/08 00:03:18;;;;;;;4.35;2.63;;;;;;;22.47;62.21;97308.16;5052861;28;20037;-59
2021/07/08 00:05:44;;;;;;;5.65;2.70;;;;;;;22.40;62.34;97307.25;5053089;28;20483;-59
2021/07/08 00:08:11;;;;;;;5.57;2.50;;;;;;;22.27;62.89;97309.88;5052535;28;20029;-59
2021/07/08 00:10:45;;;;;;;5.65;2.55;;;;;;;22.31;63.00;97309.25;5051265;28;20032;-59
2021/07/08 00:13:12;;;;;;;7.40;2.85;;;;;;;22.24;63.59;97314.69;5052551;28;20038;-59
2021/07/08 00:15:37;;;;;;;5.40;2.60;;;;;;;22.16;63.68;97303.88;5053494;28;20056;-59
2021/07/08 00:18:06;;;;;;;5.10;2.75;;;;;;;22.08;64.42;97304.03;5052994;28;20461;-59
2021/07/08 00:20:31;;;;;;;4.35;2.53;;;;;;;22.04;64.18;97305.47;5053146;28;20040;-59
2021/07/08 00:22:57;;;;;;;4.72;2.63;;;;;;;22.14;64.35;97303.25;5052809;28;20029;-59
2021/07/08 00:25:28;;;;;;;3.70;2.45;;;;;;;22.20;64.36;97304.34;5052942;28;20104;-59
2021/07/08 00:27:54;;;;;;;5.50;2.40;;;;;;;21.99;64.87;97303.31;5053167;28;20028;-59
2021/07/08 00:30:20;;;;;;;3.95;2.53;;;;;;;21.76;65.98;97309.00;5052858;28;20477;-59
2021/07/08 00:32:47;;;;;;;4.43;2.40;;;;;;;21.64;67.30;97311.41;5052824;28;20061;-59
2021/07/08 00:35:13;;;;;;;4.93;2.40;;;;;;;21.56;67.49;97314.28;5050996;28;20110;-59
2021/07/08 00:37:40;;;;;;;3.67;2.47;;;;;;;21.48;67.16;97317.94;5056255;28;20033;-59
2021/07/08 00:40:07;;;;;;;6.07;2.80;;;;;;;21.38;67.55;97321.00;5055748;28;20033;-59
2021/07/08 00:42:33;;;;;;;6.25;2.55;;;;;;;21.32;68.43;97316.28;5055113;28;20556;-59
2021/07/08 00:44:58;;;;;;;4.00;2.72;;;;;;;21.31;68.13;97328.28;5055420;28;20116;-59
2021/07/08 00:47:24;;;;;;;3.78;2.47;;;;;;;21.36;67.65;97322.22;5057044;28;20029;-60
2021/07/08 00:49:50;;;;;;;4.72;2.35;;;;;;;21.38;67.47;97321.00;5057050;28;20049;-58
2021/07/08 00:52:15;;;;;;;4.25;2.78;;;;;;;21.22;67.71;97330.28;5055491;28;20032;-58
2021/07/08 00:54:41;;;;;;;4.25;2.40;;;;;;;21.20;68.03;97331.50;5056179;28;20052;-59
2021/07/08 00:57:06;;;;;;;5.45;2.50;;;;;;;21.33;67.64;97319.88;5056443;28;20087;-59
2021/07/08 00:59:32;;;;;;;5.47;2.70;;;;;;;21.36;67.48;97325.81;5055235;28;20075;-60
2021/07/08 01:01:58;;;;;;;4.80;2.42;;;;;;;21.35;67.09;97334.22;5056172;28;20393;-59
2021/07/08 01:04:23;;;;;;;5.28;2.50;;;;;;;21.26;67.85;97338.09;5054875;28;20389;-59
2021/07/08 01:06:49;;;;;;;5.22;2.80;;;;;;;21.20;68.31;97329.59;5054911;28;20021;-59
2021/07/08 01:09:15;;;;;;;4.95;2.70;;;;;;;21.18;68.92;97328.97;5054915;28;20025;-59
2021/07/08 01:11:42;;;;;;;5.90;2.78;;;;;;;21.12;68.31;97327.00;5054795;28;20449;-59
2021/07/08 01:14:08;;;;;;;5.82;2.85;;;;;;;21.10;69.04;97331.81;5054650;28;20025;-59
2021/07/08 01:16:34;;;;;;;3.80;2.90;;;;;;;21.12;68.98;97327.00;5056056;28;20032;-58
2021/07/08 01:19:01;;;;;;;5.28;2.80;;;;;;;21.15;69.17;97329.38;5056202;28;20013;-58
2021/07/08 01:21:28;;;;;;;5.05;2.60;;;;;;;20.90;69.61;97324.19;5056014;28;20025;-58
2021/07/08 01:23:56;;;;;;;7.10;2.72;;;;;;;20.86;70.03;97320.13;5054579;28;20032;-58
2021/07/08 01:26:22;;;;;;;5.13;2.67;;;;;;;20.88;70.34;97328.16;5056032;28;20104;-58
2021/07/08 01:28:53;;;;;;;5.15;3.08;;;;;;;20.94;70.68;97319.19;5055794;28;20039;-58
2021/07/08 01:31:19;;;;;;;4.38;2.80;;;;;;;20.89;71.68;97317.00;5055966;28;20025;-58
2021/07/08 01:33:45;;;;;;;3.08;2.70;;;;;;;21.00;70.57;97314.84;5055931;28;20021;-60
2021/07/08 01:36:11;;;;;;;4.88;3.10;;;;;;;20.94;71.69;97302.78;5054422;28;20083;-59
2021/07/08 01:38:36;;;;;;;5.95;2.92;;;;;;;20.93;72.62;97295.63;5055567;28;20021;-59
2021/07/08 01:41:04;;;;;;;5.05;3.38;;;;;;;20.73;73.43;97306.28;5055452;28;20033;-60
2021/07/08 01:43:33;;;;;;;6.47;3.83;;;;;;;21.00;73.02;97312.13;5056017;28;20025;-59
2021/07/08 01:45:59;;;;;;;5.88;3.60;;;;;;;21.11;72.95;97308.91;5055515;28;20064;-59
2021/07/08 01:48:24;;;;;;;6.30;3.45;;;;;;;21.00;73.57;97299.28;5055326;28;20060;-60
2021/07/08 01:50:50;;;;;;;7.90;3.70;;;;;;;20.98;73.58;97292.31;5055545;28;20036;-59
2021/07/08 01:53:16;;;;;;;7.20;3.72;;;;;;;21.08;73.17;97290.13;5053968;28;20057;-59
2021/07/08 01:55:42;;;;;;;6.45;3.65;;;;;;;21.07;73.23;97283.81;5055162;28;20546;-59
2021/07/08 01:58:07;;;;;;;5.38;3.72;;;;;;;20.86;74.84;97290.06;5055189;28;20037;-59
2021/07/08 02:00:33;;;;;;;5.28;3.55;;;;;;;20.93;74.27;97290.16;5055210;28;20036;-60
2021/07/08 02:02:58;;;;;;;5.53;3.45;;;;;;;21.01;73.18;97294.69;5053743;28;20056;-61
2021/07/08 02:05:24;;;;;;;6.28;3.42;;;;;;;21.21;71.97;97295.75;5055052;28;20033;-60
2021/07/08 02:07:50;;;;;;;10.32;3.53;;;;;;;21.11;73.27;97302.56;5055315;28;20488;-60
2021/07/08 02:10:17;;;;;;;5.78;3.50;;;;;;;21.09;73.28;97299.19;5054893;28;20032;-60
2021/07/08 02:12:43;;;;;;;5.38;3.38;;;;;;;21.16;71.96;97300.13;5053941;28;20452;-60
2021/07/08 02:15:09;;;;;;;4.68;3.15;;;;;;;21.04;70.53;97294.28;5054773;28;20068;-60
2021/07/08 02:17:36;;;;;;;6.85;3.80;;;;;;;21.07;71.79;97302.09;5054717;28;20495;-60
2021/07/08 02:20:03;;;;;;;6.70;3.80;;;;;;;21.05;72.70;97301.47;5054951;28;20025;-61
2021/07/08 02:22:29;;;;;;;4.65;3.67;;;;;;;20.95;72.88;97299.03;5054590;28;20488;-60
2021/07/08 02:24:54;;;;;;;5.43;3.45;;;;;;;21.03;71.49;97298.06;5054929;28;20029;-60
2021/07/08 02:27:19;;;;;;;3.53;3.00;;;;;;;21.18;70.08;97304.34;5054882;28;20049;-60
2021/07/08 02:29:45;;;;;;;5.93;3.50;;;;;;;21.15;70.65;97303.88;5053454;28;20040;-60
2021/07/08 02:32:10;;;;;;;6.35;3.10;;;;;;;21.03;71.39;97303.53;5054445;28;20021;-59
2021/07/08 02:34:36;;;;;;;3.95;2.80;;;;;;;21.06;69.96;97297.69;5054702;28;20454;-60
2021/07/08 02:37:04;;;;;;;4.60;3.10;;;;;;;20.78;71.69;97298.38;5054426;28;20033;-60
2021/07/08 02:39:30;;;;;;;4.78;2.70;;;;;;;20.70;71.34;97293.84;5054410;28;20106;-60
2021/07/08 02:41:55;;;;;;;5.97;2.92;;;;;;;20.72;71.30;97290.94;5054415;28;20079;-60
2021/07/08 02:44:20;;;;;;;4.20;2.95;;;;;;;20.80;70.86;97296.28;5054325;28;20033;-60
2021/07/08 02:46:46;;;;;;;4.38;2.80;;;;;;;20.81;71.04;97289.78;5054550;28;20106;-60
2021/07/08 02:49:11;;;;;;;5.43;2.80;;;;;;;20.70;71.59;97295.75;5052974;28;20025;-60
2021/07/08 02:51:37;;;;;;;3.83;2.65;;;;;;;20.69;71.43;97291.31;5054411;28;20020;-60
2021/07/08 02:54:02;;;;;;;7.07;3.00;;;;;;;20.78;70.77;97281.13;5053878;28;20045;-60
2021/07/08 02:56:28;;;;;;;5.20;2.88;;;;;;;20.79;71.47;97286.41;5054332;28;20108;-60
2021/07/08 02:58:53;;;;;;;5.05;3.13;;;;;;;20.79;71.46;97293.75;5053341;28;20025;-60
2021/07/08 03:01:18;;;;;;;6.15;3.08;;;;;;;20.80;71.15;97296.28;5053902;28;20052;-60
2021/07/08 03:03:44;;;;;;;4.35;3.13;;;;;;;20.94;70.77;97286.41;5054272;28;20043;-60
2021/07/08 03:06:09;;;;;;;8.40;2.90;;;;;;;20.72;72.13;97288.19;5053889;28;20066;-60
2021/07/08 03:08:34;;;;;;;7.68;3.20;;;;;;;20.75;72.27;97296.00;5051368;28;20021;-61
2021/07/08 03:11:01;;;;;;;5.43;2.80;;;;;;;20.64;70.84;97297.28;5052770;28;20511;-60
2021/07/08 03:13:26;;;;;;;4.38;2.83;;;;;;;20.65;71.02;97312.66;5052484;28;20086;-60
2021/07/08 03:15:52;;;;;;;4.88;2.92;;;;;;;20.53;70.66;97311.44;5054017;28;20473;-60
2021/07/08 03:18:17;;;;;;;4.13;3.00;;;;;;;20.41;71.19;97308.31;5053750;28;20029;-60
2021/07/08 03:20:45;;;;;;;4.78;2.90;;;;;;;20.35;71.32;97304.47;5053925;28;20025;-60
2021/07/08 03:23:11;;;;;;;5.65;3.20;;;;;;;20.48;71.14;97302.97;5053530;28;20025;-60
2021/07/08 03:25:37;;;;;;;5.13;3.10;;;;;;;20.56;70.74;97294.66;5052445;28;20473;-60
2021/07/08 03:28:03;;;;;;;6.32;3.30;;;;;;;20.53;70.67;97279.50;5053601;28;20032;-60
2021/07/08 03:30:30;;;;;;;5.20;3.22;;;;;;;20.48;71.20;97281.94;5052235;28;20466;-60
2021/07/08 03:32:56;;;;;;;5.68;3.30;;;;;;;20.53;71.26;97287.69;5052343;28;20025;-60
2021/07/08 03:35:22;;;;;;;5.45;3.50;;;;;;;20.56;71.50;97281.88;5053611;28;20105;-60
2021/07/08 03:37:48;;;;;;;6.00;3.30;;;;;;;20.44;72.37;97286.09;5052241;28;20032;-60
2021/07/08 03:40:14;;;;;;;5.18;3.30;;;;;;;20.47;71.83;97298.53;5053562;28;20021;-60
2021/07/08 03:42:41;;;;;;;7.53;4.18;;;;;;;20.40;72.48;97302.03;5053426;28;20107;-60
2021/07/08 03:45:08;;;;;;;4.93;3.35;;;;;;;20.36;72.63;97308.03;5053633;28;20221;-60
2021/07/08 03:47:33;;;;;;;5.28;3.58;;;;;;;20.41;72.48;97306.44;5052097;28;20100;-60
2021/07/08 03:49:58;;;;;;;4.70;3.22;;;;;;;20.52;72.10;97310.59;5053877;28;20102;-60
2021/07/08 03:52:24;;;;;;;6.40;3.08;;;;;;;20.43;72.97;97316.31;5053143;28;20087;-60
2021/07/08 03:54:49;;;;;;;7.30;3.60;;;;;;;20.35;73.46;97314.50;5053041;28;20094;-60
2021/07/08 03:57:15;;;;;;;6.75;3.40;;;;;;;20.33;73.17;97314.72;5053361;28;20029;-61
2021/07/08 03:59:40;;;;;;;5.25;3.38;;;;;;;20.32;73.19;97323.94;5052216;28;20032;-60
2021/07/08 04:02:06;;;;;;;7.25;3.30;;;;;;;20.48;72.26;97325.66;5051810;28;20021;-60
2021/07/08 04:04:32;;;;;;;7.65;3.97;;;;;;;20.51;73.01;97327.16;5053108;28;20107;-60
2021/07/08 04:06:57;;;;;;;8.00;3.60;;;;;;;20.57;72.29;97334.63;5053350;28;20036;-60
2021/07/08 04:09:23;;;;;;;8.68;3.10;;;;;;;20.58;72.48;97328.13;5053742;28;20037;-60
2021/07/08 04:11:48;;;;;;;6.00;3.47;;;;;;;20.57;72.87;97315.50;5056696;28;20059;-60
2021/07/08 04:14:14;;;;;;;5.30;3.08;;;;;;;20.47;72.14;97315.78;5057599;28;20028;-60
2021/07/08 04:16:39;;;;;;;8.30;3.50;;;;;;;20.50;72.61;97315.41;5055926;28;20029;-60
2021/07/08 04:19:04;;;;;;;7.53;3.22;;;;;;;20.55;73.18;97328.47;5057078;28;20032;-60
2021/07/08 04:21:30;;;;;;;7.63;3.58;;;;;;;20.54;73.94;97335.84;5056930;28;20025;-59
2021/07/08 04:23:55;;;;;;;8.63;3.33;;;;;;;20.70;73.45;97331.28;5057211;28;20021;-60
2021/07/08 04:26:21;;;;;;;8.73;3.70;;;;;;;20.68;72.81;97339.59;5056001;28;20090;-60
2021/07/08 04:28:46;;;;;;;7.10;3.30;;;;;;;20.66;73.21;97332.66;5057438;28;20039;-60
2021/07/08 04:31:15;;;;;;;6.88;3.60;;;;;;;20.87;72.75;97334.66;5057016;28;20037;-59
2021/07/08 04:33:41;;;;;;;4.70;3.40;;;;;;;20.88;72.77;97333.63;5056904;28;20496;-60
2021/07/08 04:36:07;;;;;;;6.22;3.60;;;;;;;20.78;73.19;97335.78;5056662;28;20025;-60
2021/07/08 04:38:32;;;;;;;6.30;3.15;;;;;;;20.80;72.55;97341.91;5055539;28;20174;-60
2021/07/08 04:40:58;;;;;;;5.15;3.10;;;;;;;20.78;72.62;97338.50;5055645;28;20025;-60
2021/07/08 04:43:23;;;;;;;5.32;3.03;;;;;;;20.79;72.39;97348.41;5057043;28;20029;-61
2021/07/08 04:45:51;;;;;;;6.85;3.20;;;;;;;20.88;71.51;97356.34;5056846;28;20021;-60
2021/07/08 04:48:16;;;;;;;5.32;3.20;;;;;;;21.02;71.14;97362.00;5055512;28;20036;-60
2021/07/08 04:50:42;;;;;;;6.40;3.08;;;;;;;21.03;69.50;97366.41;5056350;28;20034;-60
2021/07/08 04:53:08;;;;;;;5.85;3.30;;;;;;;20.77;69.97;97353.22;5054991;28;20029;-60
2021/07/08 04:55:33;;;;;;;7.55;3.17;;;;;;;20.89;69.70;97359.91;5055210;28;20029;-60
2021/07/08 04:57:59;;;;;;;6.95;3.53;;;;;;;20.93;69.59;97368.59;5056570;28;20428;-60
2021/07/08 05:00:25;;;;;;;7.47;3.67;;;;;;;21.01;69.64;97369.34;5056101;28;20465;-61
2021/07/08 05:02:51;;;;;;;8.30;3.47;;;;;;;21.11;69.46;97365.47;5056053;28;20469;-60
2021/07/08 05:05:17;;;;;;;5.20;3.30;;;;;;;21.22;69.07;97356.78;5056090;28;20463;-60
2021/07/08 05:07:43;;;;;;;8.13;3.42;;;;;;;21.03;70.05;97360.94;5055048;28;20465;-60
2021/07/08 05:10:11;;;;;;;6.78;3.40;;;;;;;21.01;70.44;97358.41;5049274;28;20036;-59
2021/07/08 05:12:36;;;;;;;6.82;3.30;;;;;;;21.05;70.96;97375.28;5052952;28;20025;-59
2021/07/08 05:15:03;;;;;;;11.90;3.70;;;;;;;21.12;71.49;97384.41;5054860;28;20028;-61
2021/07/08 05:17:29;;;;;;;10.77;3.40;;;;;;;21.27;70.73;97378.09;5054187;28;20032;-60
2021/07/08 05:19:54;;;;;;;12.90;3.90;;;;;;;21.38;70.18;97378.44;5055026;28;20017;-60
2021/07/08 05:22:21;;;;;;;5.45;3.25;;;;;;;21.30;70.30;97388.63;5054782;28;20541;-60
2021/07/08 05:24:48;;;;;;;6.22;3.60;;;;;;;21.37;69.51;97389.59;5054015;28;20029;-60
2021/07/08 05:27:17;;;;;;;8.38;3.70;;;;;;;21.36;70.66;97390.63;5055194;28;20100;-59
2021/07/08 05:29:47;;;;;;;7.03;3.83;;;;;;;21.31;70.83;97387.59;5055426;28;20021;-59
2021/07/08 05:32:15;;;;;;;7.38;3.65;;;;;;;21.28;71.93;97380.63;5054959;28;20130;-59
2021/07/08 05:34:41;;;;;;;8.23;3.35;;;;;;;21.34;71.67;97384.47;5055261;28;20040;-60
2021/07/08 05:37:08;;;;;;;6.72;3.50;;;;;;;21.31;71.68;97377.53;5051821;28;20025;-59
2021/07/08 05:39:33;;;;;;;5.43;3.15;;;;;;;21.36;72.58;97375.03;5054786;28;20552;-60
2021/07/08 05:41:59;;;;;;;7.18;3.47;;;;;;;21.39;72.03;97379.28;5054511;28;20108;-59
2021/07/08 05:44:24;;;;;;;6.18;3.58;;;;;;;21.44;72.00;97368.63;5053603;28;20060;-59
2021/07/08 05:46:49;;;;;;;9.05;4.40;;;;;;;21.43;72.99;97357.88;5055173;28;20039;-59
2021/07/08 05:49:15;;;;;;;5.80;3.40;;;;;;;21.49;72.27;97366.16;5053280;28;20031;-59
2021/07/08 05:51:40;;;;;;;6.13;3.63;;;;;;;21.50;72.21;97365.13;5055064;28;20106;-59
2021/07/08 05:54:05;;;;;;;6.85;3.72;;;;;;;21.60;71.96;97364.84;5054727;28;20049;-59
2021/07/08 05:56:31;;;;;;;5.57;3.50;;;;;;;21.67;71.62;97370.38;5053797;28;20473;-59
2021/07/08 05:58:56;;;;;;;7.68;3.95;;;;;;;21.81;71.53;97374.13;5053091;28;20064;-59
2021/07/08 06:01:22;;;;;;;6.45;3.53;;;;;;;21.90;70.55;97370.22;5054770;28;20070;-59
2021/07/08 06:03:48;;;;;;;7.63;3.45;;;;;;;22.01;68.85;97375.16;5052831;28;20025;-59
2021/07/08 06:06:17;;;;;;;7.63;3.80;;;;;;;22.06;70.35;97367.22;5052685;28;20048;-59
2021/07/08 06:08:44;;;;;;;8.43;3.83;;;;;;;22.16;68.95;97364.16;5052676;28;20551;-59
2021/07/08 06:11:09;;;;;;;6.63;3.60;;;;;;;22.38;68.31;97362.28;5052546;28;20025;-60
2021/07/08 06:13:35;;;;;;;7.93;3.92;;;;;;;22.59;66.27;97354.19;5052517;28;20025;-59
2021/07/08 06:16:01;;;;;;;7.45;3.55;;;;;;;22.52;65.80;97351.41;5054202;28;20032;-59
2021/07/08 06:18:26;;;;;;;5.78;3.40;;;;;;;22.66;65.21;97344.13;5054095;28;20445;-59
2021/07/08 06:20:51;;;;;;;8.75;3.70;;;;;;;22.93;65.19;97342.41;5054602;28;20036;-59
2021/07/08 06:23:19;;;;;;;7.70;3.67;;;;;;;23.02;64.07;97332.09;5052684;28;20535;-59
2021/07/08 06:25:45;;;;;;;8.48;3.30;;;;;;;23.08;62.77;97336.78;5054733;28;20469;-58
2021/07/08 06:28:11;;;;;;;7.53;3.55;;;;;;;23.02;62.52;97332.97;5053754;28;20035;-59
2021/07/08 06:30:36;;;;;;;5.65;3.70;;;;;;;22.85;63.07;97328.81;5054003;28;20035;-59
2021/07/08 06:33:01;;;;;;;5.47;3.38;;;;;;;22.79;63.26;97333.22;5053141;28;20474;-59
2021/07/08 06:35:27;;;;;;;5.68;3.22;;;;;;;22.83;62.93;97337.25;5033147;28;20021;-59
2021/07/08 06:37:52;;;;;;;5.95;3.33;;;;;;;22.81;63.01;97346.75;5052287;28;20035;-59
2021/07/08 06:40:18;;;;;;;7.28;3.22;;;;;;;22.82;64.09;97335.59;5052238;28;20025;-59
2021/07/08 06:42:44;;;;;;;6.85;3.50;;;;;;;22.87;63.90;97340.47;5051458;28;20028;-59
2021/07/08 06:45:15;;;;;;;6.43;3.60;;;;;;;22.84;64.93;97325.25;5050524;28;20017;-59
2021/07/08 06:47:43;;;;;;;9.55;3.70;;;;;;;22.87;63.97;97324.00;5051060;28;20025;-60
2021/07/08 06:50:10;;;;;;;6.70;3.70;;;;;;;22.95;64.37;97323.00;5050752;28;20079;-59
2021/07/08 06:52:35;;;;;;;8.15;3.80;;;;;;;23.04;63.71;97330.84;5049990;28;20436;-59
2021/07/08 06:55:00;;;;;;;9.35;3.65;;;;;;;23.13;63.10;97330.66;5051603;28;20505;-59
2021/07/08 06:57:26;;;;;;;4.90;3.40;;;;;;;23.16;63.23;97328.41;5033520;28;20065;-59
2021/07/08 06:59:51;;;;;;;6.75;3.85;;;;;;;23.31;62.60;97324.66;5052810;28;20037;-59
2021/07/08 07:02:16;;;;;;;6.72;3.50;;;;;;;23.38;62.23;97329.13;5053245;28;20038;-59
2021/07/08 07:04:42;;;;;;;6.90;3.55;;;;;;;23.23;61.97;97329.28;5053206;28;20486;-59
2021/07/08 07:07:07;;;;;;;6.85;3.40;;;;;;;23.50;61.20;97339.50;5052643;28;20029;-59
2021/07/08 07:09:33;;;;;;;7.38;3.72;;;;;;;23.69;60.51;97340.59;5051395;28;20031;-58
2021/07/08 07:11:58;;;;;;;7.35;3.75;;;;;;;23.74;60.20;97349.06;5051840;28;20021;-59
2021/07/08 07:14:24;;;;;;;6.18;3.72;;;;;;;23.70;60.86;97356.91;5053480;28;20412;-58
2021/07/08 07:16:49;;;;;;;6.57;3.70;;;;;;;23.67;60.39;97348.22;5052026;28;20082;-58
2021/07/08 07:19:14;;;;;;;5.65;3.42;;;;;;;23.79;60.81;97359.44;5052259;28;20029;-58
2021/07/08 07:21:40;;;;;;;6.68;3.67;;;;;;;23.80;60.16;97364.72;5049947;28;20028;-59
2021/07/08 07:24:05;;;;;;;10.48;3.70;;;;;;;23.84;60.64;97368.75;5050660;28;20037;-59
2021/07/08 07:26:31;;;;;;;6.75;3.47;;;;;;;23.84;60.10;97379.75;5050565;28;20508;-59
2021/07/08 07:28:56;;;;;;;8.35;3.38;;;;;;;23.83;59.97;97378.03;5050566;28;20640;-59
2021/07/08 07:31:22;;;;;;;9.30;3.90;;;;;;;23.91;60.05;97382.53;5050982;28;20055;-58
2021/07/08 07:33:47;;;;;;;12.23;3.80;;;;;;;24.00;59.92;97377.69;5050793;28;20477;-58
2021/07/08 07:36:13;;;;;;;6.15;3.70;;;;;;;23.95;59.45;97375.56;5049137;28;20146;-58
2021/07/08 07:38:39;;;;;;;11.80;3.72;;;;;;;24.12;59.45;97370.53;5050337;28;20086;-58
2021/07/08 07:41:06;;;;;;;6.63;3.92;;;;;;;24.09;59.79;97370.94;5049984;28;20033;-58
2021/07/08 07:43:31;;;;;;;10.57;3.70;;;;;;;24.03;59.94;97367.13;5050461;28;20025;-58
2021/07/08 07:45:57;;;;;;;7.13;3.97;;;;;;;23.96;60.38;97362.66;5050263;28;20036;-58
2021/07/08 07:48:22;;;;;;;7.07;3.65;;;;;;;24.17;59.93;97354.28;5050776;28;20056;-59
2021/07/08 07:50:47;;;;;;;8.80;3.95;;;;;;;24.12;59.87;97362.28;5051179;28;20059;-59
2021/07/08 07:53:13;;;;;;;9.00;4.00;;;;;;;24.28;59.56;97357.41;5049849;28;20738;-59
2021/07/08 07:55:40;;;;;;;8.02;4.18;;;;;;;24.34;60.06;97351.94;5050869;28;20099;-59
2021/07/08 07:58:06;;;;;;;8.75;3.85;;;;;;;24.29;59.50;97353.63;5049890;28;20037;-59
2021/07/08 08:00:32;;;;;;;7.88;4.30;;;;;;;24.29;60.45;97350.88;5051048;28;20021;-59
2021/07/08 08:02:58;;;;;;;9.38;4.05;;;;;;;24.47;59.68;97358.50;5032693;28;20090;-59
2021/07/08 08:10:38;;;;;;;7.18;4.45;;;;;;;24.29;59.85;97373.72;5051372;28;20118;-59
2021/07/08 08:13:04;;;;;;;10.30;4.40;;;;;;;24.40;59.42;97378.56;5051991;28;20388;-60
2021/07/08 08:15:30;;;;;;;9.73;4.63;;;;;;;24.66;58.61;97384.31;5051550;28;20444;-59
2021/07/08 08:17:55;;;;;;;8.95;4.40;;;;;;;24.73;59.27;97407.16;5052746;28;20033;-59
2021/07/08 08:20:21;;;;;;;9.90;4.35;;;;;;;24.73;60.58;97419.00;5052547;28;20458;-59
2021/07/08 08:22:46;;;;;;;10.15;4.85;;;;;;;24.72;59.54;97425.56;5052478;28;20465;-59
2021/07/08 08:25:12;;;;;;;10.93;4.35;;;;;;;24.79;58.91;97413.72;5052395;28;20025;-59
2021/07/08 08:27:38;;;;;;;9.80;4.68;;;;;;;24.79;59.40;97409.06;5045458;28;20086;-58
2021/07/08 08:30:08;;;;;;;12.73;5.07;;;;;;;24.81;59.59;97411.59;5051763;28;20087;-59
2021/07/08 08:32:35;;;;;;;9.40;4.68;;;;;;;24.96;58.94;97397.59;5051800;28;20025;-59
2021/07/08 08:35:00;;;;;;;9.73;4.68;;;;;;;25.05;58.33;97396.31;5051397;28;20108;-58
2021/07/08 08:37:25;;;;;;;10.48;4.97;;;;;;;25.02;59.14;97385.75;5051399;28;20464;-59
2021/07/08 08:39:51;;;;;;;9.35;4.53;;;;;;;25.01;58.94;97376.66;5052304;28;20021;-59
2021/07/08 08:42:16;;;;;;;8.80;4.50;;;;;;;25.07;58.23;97375.78;5051359;28;20083;-59
2021/07/08 08:44:42;;;;;;;13.93;5.25;;;;;;;25.24;58.23;97378.06;5052326;28;20029;-59
2021/07/08 08:47:10;;;;;;;9.50;5.07;;;;;;;24.87;58.54;97372.25;5052259;28;20029;-59
2021/07/08 08:49:41;;;;;;;9.02;5.47;;;;;;;24.93;58.68;97370.53;5052254;28;20021;-59
2021/07/08 08:52:09;;;;;;;9.93;5.07;;;;;;;25.02;58.86;97361.00;5050787;28;20029;-59
2021/07/08 08:54:35;;;;;;;11.68;4.97;;;;;;;25.07;58.09;97366.69;5051136;28;20045;-59
2021/07/08 08:57:01;;;;;;;11.32;5.07;;;;;;;25.04;58.95;97369.84;5050781;28;20056;-59
2021/07/08 08:59:26;;;;;;;9.43;5.10;;;;;;;25.05;58.33;97371.56;5055937;28;20049;-59
2021/07/08 09:02:10;;;;;;;11.15;4.88;;;;;;;25.13;58.19;97375.97;5054042;28;20111;-59
2021/07/08 09:04:36;;;;;;;7.70;4.40;;;;;;;25.18;57.64;97381.69;5056139;28;20412;-59
2021/07/08 09:07:21;;;;;;;8.13;4.90;;;;;;;25.24;56.85;97376.16;5055304;28;20084;-59
2021/07/08 09:09:47;;;;;;;8.20;4.53;;;;;;;25.35;56.82;97379.34;5055903;28;20358;-59
2021/07/08 09:12:19;;;;;;;7.45;4.68;;;;;;;25.36;56.58;97381.88;5055134;28;20055;-59
2021/07/08 09:14:45;;;;;;;11.48;4.72;;;;;;;25.39;56.49;97383.34;5054080;28;20424;-59
2021/07/08 09:17:18;;;;;;;9.32;5.10;;;;;;;25.39;56.03;97383.34;5054449;28;20108;-59
2021/07/08 09:19:44;;;;;;;9.20;5.05;;;;;;;25.40;56.72;97387.78;5054341;28;20500;-59
2021/07/08 09:22:09;;;;;;;10.15;5.15;;;;;;;25.36;56.87;97381.88;5054319;28;20032;-58
2021/07/08 09:24:35;;;;;;;7.80;5.05;;;;;;;25.35;56.20;97379.34;5054897;28;20025;-59
2021/07/08 09:27:10;;;;;;;8.73;5.30;;;;;;;25.65;56.83;97379.63;5053930;28;20021;-59
2021/07/08 09:29:38;;;;;;;9.88;5.25;;;;;;;25.74;56.00;97377.47;5054816;28;20047;-60
2021/07/08 09:32:11;;;;;;;8.82;4.70;;;;;;;25.82;56.34;97368.94;5054878;28;20350;-59
2021/07/08 09:34:39;;;;;;;9.38;6.25;;;;;;;25.70;55.47;97360.53;5054643;28;20048;-59
2021/07/08 09:37:08;;;;;;;11.07;5.20;;;;;;;25.97;56.28;97359.53;5053875;28;20060;-60
2021/07/08 09:39:44;;;;;;;9.00;4.90;;;;;;;26.08;55.44;97353.34;5054536;28;20052;-60
2021/07/08 09:42:12;;;;;;;11.40;5.30;;;;;;;26.09;54.20;97349.53;5037095;28;20508;-59
2021/07/08 09:44:38;;;;;;;12.38;4.88;;;;;;;26.04;54.30;97350.22;5053204;28;20104;-59
2021/07/08 09:47:04;;;;;;;8.55;4.72;;;;;;;26.25;54.38;97341.78;5054827;28;20488;-59
2021/07/08 09:49:30;;;;;;;10.10;4.97;;;;;;;26.35;54.20;97344.88;5055026;28;20025;-59
2021/07/08 09:51:56;;;;;;;8.82;4.70;;;;;;;26.40;53.86;97337.63;5054776;28;20048;-60
2021/07/08 09:55:31;;;;;;;9.45;4.93;;;;;;;26.41;53.23;97349.50;5054442;28;20402;-59
2021/07/08 09:57:40;;;;;;;8.90;4.95;;;;;;;26.52;53.18;97342.41;5050065;28;20040;-59
2021/07/08 10:00:32;;;;;;;10.52;5.53;;;;;;;26.52;52.83;97342.41;5053790;28;20021;-59
2021/07/08 10:02:57;;;;;;;10.85;4.82;;;;;;;26.52;52.73;97340.50;5053332;28;20720;-60
2021/07/08 10:05:25;;;;;;;8.75;5.00;;;;;;;26.49;52.53;97335.41;5054413;28;20017;-59
2021/07/08 10:07:51;;;;;;;11.15;5.03;;;;;;;26.70;52.54;97331.41;5036453;28;20396;-60
2021/07/08 10:10:16;;;;;;;13.48;4.70;;;;;;;26.58;53.09;97336.00;5053655;28;20024;-59
2021/07/08 10:12:46;;;;;;;8.10;5.03;;;;;;;26.53;53.06;97333.06;5053150;28;20025;-59
2021/07/08 10:15:12;;;;;;;7.20;5.00;;;;;;;26.45;52.57;97327.84;5054345;28;20025;-60
2021/07/08 10:17:38;;;;;;;8.77;5.38;;;;;;;26.71;52.02;97329.50;5052830;28;20118;-60
2021/07/08 10:20:06;;;;;;;10.40;5.25;;;;;;;26.81;52.14;97327.09;5053902;28;20409;-60
2021/07/08 10:22:33;;;;;;;9.32;5.70;;;;;;;26.82;51.65;97320.50;5052489;28;20028;-59
2021/07/08 10:24:59;;;;;;;10.38;5.80;;;;;;;26.46;52.46;97310.22;5034638;28;20033;-59
2021/07/08 10:27:25;;;;;;;9.20;5.70;;;;;;;26.35;52.63;97311.78;5052989;28;20401;-60
2021/07/08 10:29:52;;;;;;;9.40;4.88;;;;;;;26.72;52.53;97315.53;5034635;28;20637;-59
2021/07/08 10:32:18;;;;;;;8.60;4.97;;;;;;;27.01;51.68;97312.25;5052398;28;20040;-60
2021/07/08 10:34:48;;;;;;;11.95;6.00;;;;;;;26.79;52.16;97312.69;5050218;28;20033;-60
2021/07/08 10:37:27;;;;;;;9.90;5.07;;;;;;;27.16;52.18;97306.34;5051253;28;20035;-60
2021/07/08 10:39:53;;;;;;;10.32;5.03;;;;;;;27.13;51.88;97307.63;5051921;28;20032;-60
2021/07/08 10:42:41;;;;;;;8.90;5.45;;;;;;;27.25;50.64;97304.13;5051370;28;20067;-59
2021/07/08 10:45:07;;;;;;;11.98;4.68;;;;;;;27.18;51.77;97295.91;5051946;28;20028;-61
2021/07/08 10:47:38;;;;;;;9.70;5.45;;;;;;;27.23;51.75;97298.78;5051878;28;20029;-61
2021/07/08 10:50:07;;;;;;;10.57;5.95;;;;;;;27.31;51.56;97286.59;5050642;28;20166;-60
2021/07/08 10:52:42;;;;;;;11.32;5.85;;;;;;;27.25;51.11;97287.56;5049812;28;20056;-60
2021/07/08 10:55:09;;;;;;;9.50;6.13;;;;;;;27.30;50.55;97283.00;5051285;28;20049;-61
2021/07/08 10:57:37;;;;;;;12.18;5.70;;;;;;;27.03;52.21;97279.72;5051863;28;20029;-60
2021/07/08 11:00:07;;;;;;;11.65;5.95;;;;;;;27.12;51.38;97278.34;5051007;28;20563;-60
2021/07/08 11:02:48;;;;;;;9.23;5.90;;;;;;;27.28;51.04;97268.59;5049763;28;20024;-61
2021/07/08 11:05:14;;;;;;;7.80;5.20;;;;;;;27.23;51.60;97269.28;5051344;28;20221;-60
2021/07/08 11:07:46;;;;;;;8.60;5.50;;;;;;;27.20;51.80;97272.50;5050773;28;20396;-61
2021/07/08 11:10:13;;;;;;;9.57;6.28;;;;;;;27.06;51.21;97277.34;5052726;28;20210;-60
2021/07/08 11:12:40;;;;;;;10.32;6.97;;;;;;;27.25;50.57;97271.81;5050996;28;20025;-60
2021/07/08 11:15:07;;;;;;;9.30;6.63;;;;;;;27.19;50.86;97267.22;5051899;28;20037;-60
2021/07/08 11:17:40;;;;;;;9.68;5.82;;;;;;;27.25;51.06;97268.22;5053353;28;20035;-61
2021/07/08 11:20:29;;;;;;;13.10;6.95;;;;;;;27.05;51.03;97258.28;5052936;28;20112;-61
2021/07/08 11:22:55;;;;;;;9.65;7.15;;;;;;;27.03;51.04;97263.16;5053220;28;20108;-60
2021/07/08 11:25:20;;;;;;;12.63;6.15;;;;;;;27.21;51.50;97270.59;5052445;28;20025;-60
2021/07/08 11:27:46;;;;;;;11.68;6.15;;;;;;;27.13;51.11;97268.16;5035530;28;20079;-60
2021/07/08 11:30:11;;;;;;;12.75;7.10;;;;;;;27.18;51.28;97255.34;5051902;28;20025;-60
2021/07/08 11:32:44;;;;;;;10.90;6.70;;;;;;;27.44;51.04;97255.25;5052773;28;20104;-62
2021/07/08 11:35:33;;;;;;;8.43;6.20;;;;;;;27.51;50.81;97242.19;5051947;28;20024;-63